Spring Mountain Youth Camp, Nevada Weather observations

Data are for 60 minute period ending at time listed.
 Day   Time   Solar   Ave.   Ave.  Ave.  Vector  Max.   Baro.   Total    
  of    of     Rad.   Air    Rel.  Wind   Wind   Wind  Press.  Precip.   
Year   Day            Temp.  Hum.  Speed  Dir.   Gust                    
2015   (PST)  Kw/m2    F      %     mph   deg.    mph    mb.     in.     
-------------------------------------------------------------------------
  31    5:00   0.00   27.0    97    1.6   146     5.5   784.7    0.00 
  31    6:00   0.00   27.1    96    2.0   153     4.5   785.1    0.00 
  31    7:00   0.00   27.6    97    2.2   144     4.5   785.5    0.00 
  31    8:00   0.01   28.1    97    2.5   143     5.7   786.1    0.00 
  31    9:00   0.02   28.5    96    2.7   147     5.6   786.6    0.00 
  31   10:00   0.04   29.7    95    2.5   143     5.6   787.2    0.00 
  31   11:00   0.07   31.7    92    2.9   150     9.8   787.5    0.00 
  31   12:00   0.16   33.3    88    3.4   146     8.7   787.5    0.00 
  31   13:00   0.37   34.8    85    2.8   148     7.5   787.4    0.00 
  31   14:00   0.39   34.2    87    3.2   148    10.3   787.4    0.00 
  31   15:00   0.21   31.7    94    4.4   154     9.2   787.6    0.00 
  31   16:00   0.11   31.1    95    4.2   151    12.5   787.9    0.06 
  31   17:00   0.03   30.2    94    4.7   144    11.7   788.2    0.02 
  31   18:00   100.00  99999.0   99999  99999.0   99999   99999.0   99999.0   99999.00 
  31   19:00   100.00  99999.0   99999  99999.0   99999   99999.0   99999.0   99999.00 
  31   20:00   0.00   28.8    90    4.3   144    10.1   789.7    0.00 
  31   21:00   0.00   28.2    84    2.7   137     9.2   790.2    0.00 
  31   22:00   0.00   28.4    71    2.6   106    11.7   790.6    0.00 
  31   23:00   0.00   28.1    67    1.9   102     8.3   790.9    0.00 
  32    0:00   0.00   27.6    73    1.8   118     5.3   791.0    0.00 
  32    1:00   0.00   28.1    63    1.4    80     5.8   791.1    0.00 
  32    2:00   0.00   28.3    58    1.4    20     6.2   791.2    0.00 
  32    3:00   0.00   30.0    44    2.0   350     7.1   791.3    0.00 
  32    4:00   0.00   27.6    53    1.3    15     5.5   791.5    0.00 

Return to Spring Mountain Youth Camp graphs page.


Western Regional Climate Center,wrcc@dri.edu